createdAt,value
2018-03-27T12:21:49.138Z,20.3
2018-03-27T12:22:57.915Z,20.7
2018-03-27T12:24:06.328Z,21.0
2018-03-27T12:25:14.318Z,21.2
2018-03-27T12:26:23.502Z,21.3
2018-03-27T12:27:32.793Z,20.4
2018-03-27T12:28:40.841Z,20.4
2018-03-27T12:29:46.786Z,20.4
2018-03-27T12:30:48.193Z,20.5
2018-03-27T12:31:56.868Z,20.7
2018-03-27T12:33:04.810Z,20.4
2018-03-27T12:34:14.032Z,20.6
2018-03-27T12:35:23.524Z,20.3
2018-03-27T12:36:30.082Z,20.2
2018-03-27T12:37:37.261Z,20.2
2018-03-27T12:38:44.665Z,20.4
2018-03-27T12:39:52.192Z,20.5
2018-03-27T12:40:59.325Z,20.8
2018-03-27T12:42:05.133Z,20.0
2018-03-27T12:43:13.401Z,20.3
2018-03-27T12:44:22.197Z,19.4
2018-03-27T12:45:30.979Z,19.8
2018-03-27T12:46:41.033Z,20.1
2018-03-27T12:47:53.447Z,20.2
2018-03-27T12:49:01.811Z,20.4
2018-03-27T12:50:08.651Z,20.7
2018-03-27T12:51:10.054Z,20.5
2018-03-27T12:52:19.488Z,19.8
2018-03-27T12:53:27.692Z,20.0
2018-03-27T12:54:39.508Z,20.6
2018-03-27T12:55:48.561Z,20.8
2018-03-27T12:56:56.002Z,20.6
2018-03-27T12:58:07.928Z,20.4
2018-03-27T12:59:14.823Z,20.4
2018-03-27T13:00:22.905Z,20.3
2018-03-27T13:01:32.956Z,20.1
2018-03-27T13:02:41.379Z,19.8
2018-03-27T13:03:47.990Z,19.4
2018-03-27T13:04:52.126Z,20.1
2018-03-27T13:06:00.937Z,20.3
2018-03-27T13:07:10.323Z,20.4
2018-03-27T13:08:17.899Z,20.1
2018-03-27T13:09:26.363Z,19.9
2018-03-27T13:10:33.623Z,20.0
2018-03-27T13:11:40.522Z,19.8
2018-03-27T13:12:47.589Z,20.3
2018-03-27T13:13:56.041Z,19.8
2018-03-27T13:15:03.810Z,19.6
2018-03-27T13:16:05.205Z,19.5
2018-03-27T13:17:13.499Z,19.9
2018-03-27T13:18:20.862Z,20.3
2018-03-27T13:19:29.148Z,20.0
2018-03-27T13:20:35.888Z,20.1
2018-03-27T13:21:43.001Z,19.6
2018-03-27T13:22:50.988Z,19.7
2018-03-27T13:23:52.386Z,20.0
2018-03-27T13:24:54.111Z,19.9
2018-03-27T13:26:01.910Z,20.2
2018-03-27T13:27:12.500Z,20.2
2018-03-27T13:28:19.717Z,19.9
2018-03-27T13:29:26.381Z,19.3
2018-03-27T13:30:33.940Z,19.5
2018-03-27T13:31:41.719Z,19.8
2018-03-27T13:32:49.577Z,20.0
